Terminal Aerodrome Forecast
Issued by NWS

Home | Current Version | Previous Version | Text Only | Print | Product List | Glossary On
Versions: 1 2 3 4 5 6 7 8 9 10 11 12 13 14 15 16 17 18
000
FTUS43 KILX 211731
TAFBMI
TAF
KBMI 211731Z 2118/2218 21013G22KT P6SM SCT250
     FM212300 22005KT P6SM SCT250
     FM220300 VRB03KT 5SM BR BKN150
     FM220900 06005KT 1 1/2SM BR VCSH BKN040
     FM221700 02009KT 2SM BR OVC030=

USA.gov is the U.S. government's official web portal to all federal, state and local government web resources and services.